sensor_id;sensor_type;location;lat;lon;timestamp;temperature;humidity
17296;DHT22;8766;51.480;6.872;2022-09-09T00:00:28;18.60;58.70
17296;DHT22;8766;51.480;6.872;2022-09-09T00:03:03;18.60;58.60
17296;DHT22;8766;51.480;6.872;2022-09-09T00:05:38;18.60;58.60
17296;DHT22;8766;51.480;6.872;2022-09-09T00:08:15;18.60;58.70
17296;DHT22;8766;51.480;6.872;2022-09-09T00:10:48;18.60;58.70
17296;DHT22;8766;51.480;6.872;2022-09-09T00:13:23;18.60;58.70
17296;DHT22;8766;51.480;6.872;2022-09-09T00:15:57;18.60;58.70
17296;DHT22;8766;51.480;6.872;2022-09-09T00:18:29;18.60;58.70
17296;DHT22;8766;51.480;6.872;2022-09-09T00:21:04;18.60;58.70
17296;DHT22;8766;51.480;6.872;2022-09-09T00:23:35;18.60;58.70
17296;DHT22;8766;51.480;6.872;2022-09-09T00:26:07;18.60;58.70
17296;DHT22;8766;51.480;6.872;2022-09-09T00:28:41;18.60;58.70
17296;DHT22;8766;51.480;6.872;2022-09-09T00:31:15;18.60;58.70
17296;DHT22;8766;51.480;6.872;2022-09-09T00:33:43;18.50;58.70
17296;DHT22;8766;51.480;6.872;2022-09-09T00:36:13;18.50;58.80
17296;DHT22;8766;51.480;6.872;2022-09-09T00:38:44;18.50;58.90
17296;DHT22;8766;51.480;6.872;2022-09-09T00:41:17;18.40;59.00
17296;DHT22;8766;51.480;6.872;2022-09-09T00:43:55;18.40;59.10
17296;DHT22;8766;51.480;6.872;2022-09-09T00:49:36;18.40;59.10
17296;DHT22;8766;51.480;6.872;2022-09-09T00:52:18;18.40;59.10
17296;DHT22;8766;51.480;6.872;2022-09-09T00:54:56;18.40;59.00
17296;DHT22;8766;51.480;6.872;2022-09-09T00:57:29;18.40;58.90
17296;DHT22;8766;51.480;6.872;2022-09-09T01:00:16;18.40;58.90
17296;DHT22;8766;51.480;6.872;2022-09-09T01:02:52;18.40;58.90
17296;DHT22;8766;51.480;6.872;2022-09-09T01:05:24;18.40;58.90
17296;DHT22;8766;51.480;6.872;2022-09-09T01:07:53;18.40;58.90
17296;DHT22;8766;51.480;6.872;2022-09-09T01:10:25;18.40;58.90
17296;DHT22;8766;51.480;6.872;2022-09-09T01:12:56;18.50;58.90
17296;DHT22;8766;51.480;6.872;2022-09-09T01:15:29;18.40;58.80
17296;DHT22;8766;51.480;6.872;2022-09-09T01:18:00;18.50;58.90
17296;DHT22;8766;51.480;6.872;2022-09-09T01:20:33;18.40;58.90
17296;DHT22;8766;51.480;6.872;2022-09-09T01:26:17;18.30;59.10
17296;DHT22;8766;51.480;6.872;2022-09-09T01:28:47;18.30;59.30
17296;DHT22;8766;51.480;6.872;2022-09-09T01:31:18;18.20;59.50
17296;DHT22;8766;51.480;6.872;2022-09-09T01:33:46;18.10;59.50
17296;DHT22;8766;51.480;6.872;2022-09-09T01:36:18;18.10;59.60
17296;DHT22;8766;51.480;6.872;2022-09-09T01:38:46;18.00;59.70
17296;DHT22;8766;51.480;6.872;2022-09-09T01:41:14;18.00;59.70
17296;DHT22;8766;51.480;6.872;2022-09-09T01:43:41;18.00;59.80
17296;DHT22;8766;51.480;6.872;2022-09-09T01:46:09;17.90;59.80
17296;DHT22;8766;51.480;6.872;2022-09-09T01:48:36;17.90;59.90
17296;DHT22;8766;51.480;6.872;2022-09-09T01:51:04;17.80;59.90
17296;DHT22;8766;51.480;6.872;2022-09-09T01:53:31;17.80;60.00
17296;DHT22;8766;51.480;6.872;2022-09-09T01:56:07;17.80;60.10
17296;DHT22;8766;51.480;6.872;2022-09-09T01:58:49;17.80;60.20
17296;DHT22;8766;51.480;6.872;2022-09-09T02:01:27;17.70;60.20
17296;DHT22;8766;51.480;6.872;2022-09-09T02:03:57;17.70;60.30
17296;DHT22;8766;51.480;6.872;2022-09-09T02:06:28;17.70;60.30
17296;DHT22;8766;51.480;6.872;2022-09-09T02:08:57;17.70;60.30
17296;DHT22;8766;51.480;6.872;2022-09-09T02:11:27;17.70;60.20
17296;DHT22;8766;51.480;6.872;2022-09-09T02:14:00;17.70;60.10
17296;DHT22;8766;51.480;6.872;2022-09-09T02:16:32;17.70;60.10
17296;DHT22;8766;51.480;6.872;2022-09-09T02:19:04;17.70;60.10
17296;DHT22;8766;51.480;6.872;2022-09-09T02:21:34;17.80;60.10
17296;DHT22;8766;51.480;6.872;2022-09-09T02:24:04;17.80;60.00
17296;DHT22;8766;51.480;6.872;2022-09-09T02:26:34;17.90;59.80
17296;DHT22;8766;51.480;6.872;2022-09-09T02:29:08;17.90;59.70
17296;DHT22;8766;51.480;6.872;2022-09-09T02:31:37;18.00;59.60
17296;DHT22;8766;51.480;6.872;2022-09-09T02:34:05;18.00;59.50
17296;DHT22;8766;51.480;6.872;2022-09-09T02:36:37;18.00;59.50
17296;DHT22;8766;51.480;6.872;2022-09-09T02:39:07;18.10;59.50
17296;DHT22;8766;51.480;6.872;2022-09-09T02:41:37;18.10;59.40
17296;DHT22;8766;51.480;6.872;2022-09-09T02:44:09;18.10;59.40
17296;DHT22;8766;51.480;6.872;2022-09-09T02:46:53;18.10;59.40
17296;DHT22;8766;51.480;6.872;2022-09-09T02:49:31;18.10;59.40
17296;DHT22;8766;51.480;6.872;2022-09-09T02:52:04;18.20;59.40
17296;DHT22;8766;51.480;6.872;2022-09-09T02:54:33;18.10;59.30
17296;DHT22;8766;51.480;6.872;2022-09-09T02:57:05;18.10;59.30
17296;DHT22;8766;51.480;6.872;2022-09-09T02:59:34;18.10;59.40
17296;DHT22;8766;51.480;6.872;2022-09-09T03:02:01;18.10;59.50
17296;DHT22;8766;51.480;6.872;2022-09-09T03:04:29;18.10;59.50
17296;DHT22;8766;51.480;6.872;2022-09-09T03:06:56;18.10;59.50
17296;DHT22;8766;51.480;6.872;2022-09-09T03:09:23;18.00;59.60
17296;DHT22;8766;51.480;6.872;2022-09-09T03:11:51;18.00;59.70
17296;DHT22;8766;51.480;6.872;2022-09-09T03:14:18;17.90;59.80
17296;DHT22;8766;51.480;6.872;2022-09-09T03:16:51;17.90;60.00
17296;DHT22;8766;51.480;6.872;2022-09-09T03:19:18;17.80;60.00
17296;DHT22;8766;51.480;6.872;2022-09-09T03:21:45;17.80;60.10
17296;DHT22;8766;51.480;6.872;2022-09-09T03:24:12;17.80;60.20
17296;DHT22;8766;51.480;6.872;2022-09-09T03:26:39;17.70;60.20
17296;DHT22;8766;51.480;6.872;2022-09-09T03:29:06;17.70;60.30
17296;DHT22;8766;51.480;6.872;2022-09-09T03:31:34;17.70;60.40
17296;DHT22;8766;51.480;6.872;2022-09-09T03:34:03;17.70;60.50
17296;DHT22;8766;51.480;6.872;2022-09-09T03:36:31;17.60;60.40
17296;DHT22;8766;51.480;6.872;2022-09-09T03:38:58;17.60;60.40
17296;DHT22;8766;51.480;6.872;2022-09-09T03:41:26;17.60;60.40
17296;DHT22;8766;51.480;6.872;2022-09-09T03:43:54;17.60;60.40
17296;DHT22;8766;51.480;6.872;2022-09-09T03:46:22;17.60;60.40
17296;DHT22;8766;51.480;6.872;2022-09-09T03:48:49;17.70;60.40
17296;DHT22;8766;51.480;6.872;2022-09-09T03:51:19;17.70;60.30
17296;DHT22;8766;51.480;6.872;2022-09-09T03:53:46;17.70;60.30
17296;DHT22;8766;51.480;6.872;2022-09-09T03:56:14;17.70;60.20
17296;DHT22;8766;51.480;6.872;2022-09-09T03:58:41;17.70;60.20
17296;DHT22;8766;51.480;6.872;2022-09-09T04:01:10;17.70;60.20
17296;DHT22;8766;51.480;6.872;2022-09-09T04:03:38;17.70;60.20
17296;DHT22;8766;51.480;6.872;2022-09-09T04:06:07;17.70;60.30
17296;DHT22;8766;51.480;6.872;2022-09-09T04:08:36;17.70;60.30
17296;DHT22;8766;51.480;6.872;2022-09-09T04:11:04;17.70;60.40
17296;DHT22;8766;51.480;6.872;2022-09-09T04:13:31;17.70;60.50
17296;DHT22;8766;51.480;6.872;2022-09-09T04:16:00;17.60;60.50
17296;DHT22;8766;51.480;6.872;2022-09-09T04:18:29;17.60;60.60
17296;DHT22;8766;51.480;6.872;2022-09-09T04:20:56;17.60;60.60
17296;DHT22;8766;51.480;6.872;2022-09-09T04:23:24;17.60;61.30
17296;DHT22;8766;51.480;6.872;2022-09-09T04:25:54;17.60;60.70
17296;DHT22;8766;51.480;6.872;2022-09-09T04:28:24;17.60;60.70
17296;DHT22;8766;51.480;6.872;2022-09-09T04:30:51;17.60;60.70
17296;DHT22;8766;51.480;6.872;2022-09-09T04:33:19;17.60;60.60
17296;DHT22;8766;51.480;6.872;2022-09-09T04:35:48;17.60;60.60
17296;DHT22;8766;51.480;6.872;2022-09-09T04:38:15;17.60;60.60
17296;DHT22;8766;51.480;6.872;2022-09-09T04:40:43;17.60;60.60
17296;DHT22;8766;51.480;6.872;2022-09-09T04:43:11;17.60;60.50
17296;DHT22;8766;51.480;6.872;2022-09-09T04:45:38;17.70;60.50
17296;DHT22;8766;51.480;6.872;2022-09-09T04:48:06;17.60;60.30
17296;DHT22;8766;51.480;6.872;2022-09-09T04:50:33;17.70;60.30
17296;DHT22;8766;51.480;6.872;2022-09-09T04:53:00;17.70;60.30
17296;DHT22;8766;51.480;6.872;2022-09-09T04:55:28;17.80;60.20
17296;DHT22;8766;51.480;6.872;2022-09-09T04:57:55;17.80;60.10
17296;DHT22;8766;51.480;6.872;2022-09-09T05:00:24;17.80;60.10
17296;DHT22;8766;51.480;6.872;2022-09-09T05:02:51;17.80;60.00
17296;DHT22;8766;51.480;6.872;2022-09-09T05:05:18;17.80;60.00
17296;DHT22;8766;51.480;6.872;2022-09-09T05:07:45;17.90;60.10
17296;DHT22;8766;51.480;6.872;2022-09-09T05:10:13;17.90;60.00
17296;DHT22;8766;51.480;6.872;2022-09-09T05:12:43;17.90;60.00
17296;DHT22;8766;51.480;6.872;2022-09-09T05:15:09;17.90;60.00
17296;DHT22;8766;51.480;6.872;2022-09-09T05:17:38;17.90;60.00
17296;DHT22;8766;51.480;6.872;2022-09-09T05:20:06;17.90;60.00
17296;DHT22;8766;51.480;6.872;2022-09-09T05:22:33;17.90;60.00
17296;DHT22;8766;51.480;6.872;2022-09-09T05:25:00;17.90;60.00
17296;DHT22;8766;51.480;6.872;2022-09-09T05:27:27;17.90;60.00
17296;DHT22;8766;51.480;6.872;2022-09-09T05:29:54;17.90;60.00
17296;DHT22;8766;51.480;6.872;2022-09-09T05:32:22;17.90;60.00
17296;DHT22;8766;51.480;6.872;2022-09-09T05:34:51;18.00;59.90
17296;DHT22;8766;51.480;6.872;2022-09-09T05:37:18;18.00;59.90
17296;DHT22;8766;51.480;6.872;2022-09-09T05:39:45;18.00;59.90
17296;DHT22;8766;51.480;6.872;2022-09-09T05:42:12;18.00;59.90
17296;DHT22;8766;51.480;6.872;2022-09-09T05:44:39;18.00;59.90
17296;DHT22;8766;51.480;6.872;2022-09-09T05:47:08;18.10;59.90
17296;DHT22;8766;51.480;6.872;2022-09-09T05:49:35;18.10;59.90
17296;DHT22;8766;51.480;6.872;2022-09-09T05:52:04;18.10;59.80
17296;DHT22;8766;51.480;6.872;2022-09-09T05:54:32;18.10;59.70
17296;DHT22;8766;51.480;6.872;2022-09-09T05:56:59;18.20;59.60
17296;DHT22;8766;51.480;6.872;2022-09-09T05:59:26;18.20;59.60
17296;DHT22;8766;51.480;6.872;2022-09-09T06:01:54;18.30;59.50
17296;DHT22;8766;51.480;6.872;2022-09-09T06:04:21;18.30;59.40
17296;DHT22;8766;51.480;6.872;2022-09-09T06:06:49;18.40;59.20
17296;DHT22;8766;51.480;6.872;2022-09-09T06:09:18;18.50;59.10
17296;DHT22;8766;51.480;6.872;2022-09-09T06:11:45;18.60;58.90
17296;DHT22;8766;51.480;6.872;2022-09-09T06:14:12;18.70;58.70
17296;DHT22;8766;51.480;6.872;2022-09-09T06:16:39;18.90;58.40
17296;DHT22;8766;51.480;6.872;2022-09-09T06:19:09;19.10;58.00
17296;DHT22;8766;51.480;6.872;2022-09-09T06:21:37;19.30;57.70
17296;DHT22;8766;51.480;6.872;2022-09-09T06:24:06;19.40;58.10
17296;DHT22;8766;51.480;6.872;2022-09-09T06:26:36;19.40;57.50
17296;DHT22;8766;51.480;6.872;2022-09-09T06:29:06;19.40;57.50
17296;DHT22;8766;51.480;6.872;2022-09-09T06:31:35;19.40;57.60
17296;DHT22;8766;51.480;6.872;2022-09-09T06:34:04;19.30;57.80
17296;DHT22;8766;51.480;6.872;2022-09-09T06:36:36;19.20;58.00
17296;DHT22;8766;51.480;6.872;2022-09-09T06:39:03;19.10;58.10
17296;DHT22;8766;51.480;6.872;2022-09-09T06:41:32;19.10;58.30
17296;DHT22;8766;51.480;6.872;2022-09-09T06:44:01;19.20;58.30
17296;DHT22;8766;51.480;6.872;2022-09-09T06:46:30;19.30;58.00
17296;DHT22;8766;51.480;6.872;2022-09-09T06:48:59;19.60;57.60
17296;DHT22;8766;51.480;6.872;2022-09-09T06:51:27;19.80;57.30
17296;DHT22;8766;51.480;6.872;2022-09-09T06:53:55;19.90;57.00
17296;DHT22;8766;51.480;6.872;2022-09-09T06:56:23;20.00;56.80
17296;DHT22;8766;51.480;6.872;2022-09-09T06:58:51;20.00;56.80
17296;DHT22;8766;51.480;6.872;2022-09-09T07:01:21;20.00;56.80
17296;DHT22;8766;51.480;6.872;2022-09-09T07:03:50;20.00;56.90
17296;DHT22;8766;51.480;6.872;2022-09-09T07:06:19;20.00;56.90
17296;DHT22;8766;51.480;6.872;2022-09-09T07:08:49;20.20;56.70
17296;DHT22;8766;51.480;6.872;2022-09-09T07:11:17;20.50;56.30
17296;DHT22;8766;51.480;6.872;2022-09-09T07:13:44;21.00;55.50
17296;DHT22;8766;51.480;6.872;2022-09-09T07:16:13;22.00;53.80
17296;DHT22;8766;51.480;6.872;2022-09-09T07:18:41;22.60;52.50
17296;DHT22;8766;51.480;6.872;2022-09-09T07:21:09;24.40;49.80
17296;DHT22;8766;51.480;6.872;2022-09-09T07:23:37;26.40;46.90
17296;DHT22;8766;51.480;6.872;2022-09-09T07:26:08;27.10;45.80
17296;DHT22;8766;51.480;6.872;2022-09-09T07:28:35;26.70;46.40
17296;DHT22;8766;51.480;6.872;2022-09-09T07:31:02;26.10;47.60
17296;DHT22;8766;51.480;6.872;2022-09-09T07:33:31;26.00;48.00
17296;DHT22;8766;51.480;6.872;2022-09-09T07:36:04;25.90;48.10
17296;DHT22;8766;51.480;6.872;2022-09-09T07:38:32;26.20;48.00
17296;DHT22;8766;51.480;6.872;2022-09-09T07:41:04;25.90;48.40
17296;DHT22;8766;51.480;6.872;2022-09-09T07:43:32;25.40;49.40
17296;DHT22;8766;51.480;6.872;2022-09-09T07:46:00;25.30;49.70
17296;DHT22;8766;51.480;6.872;2022-09-09T07:48:28;25.30;49.70
17296;DHT22;8766;51.480;6.872;2022-09-09T07:51:06;25.10;50.10
17296;DHT22;8766;51.480;6.872;2022-09-09T07:53:34;25.00;50.30
17296;DHT22;8766;51.480;6.872;2022-09-09T07:56:06;24.90;50.40
17296;DHT22;8766;51.480;6.872;2022-09-09T07:58:35;24.60;50.90
17296;DHT22;8766;51.480;6.872;2022-09-09T08:01:07;24.30;51.40
17296;DHT22;8766;51.480;6.872;2022-09-09T08:03:35;24.10;52.00
17296;DHT22;8766;51.480;6.872;2022-09-09T08:06:04;23.70;52.40
17296;DHT22;8766;51.480;6.872;2022-09-09T08:08:32;23.40;52.90
17296;DHT22;8766;51.480;6.872;2022-09-09T08:11:04;23.30;53.20
17296;DHT22;8766;51.480;6.872;2022-09-09T08:13:33;23.30;53.30
17296;DHT22;8766;51.480;6.872;2022-09-09T08:16:05;23.30;53.30
17296;DHT22;8766;51.480;6.872;2022-09-09T08:18:33;23.30;53.30
17296;DHT22;8766;51.480;6.872;2022-09-09T08:21:07;23.20;53.30
17296;DHT22;8766;51.480;6.872;2022-09-09T08:23:38;23.00;53.50
17296;DHT22;8766;51.480;6.872;2022-09-09T08:26:09;22.80;53.80
17296;DHT22;8766;51.480;6.872;2022-09-09T08:28:37;22.70;54.10
17296;DHT22;8766;51.480;6.872;2022-09-09T08:31:07;22.70;54.10
17296;DHT22;8766;51.480;6.872;2022-09-09T08:33:34;22.90;53.80
17296;DHT22;8766;51.480;6.872;2022-09-09T08:36:03;23.10;53.20
17296;DHT22;8766;51.480;6.872;2022-09-09T08:38:31;23.30;52.90
17296;DHT22;8766;51.480;6.872;2022-09-09T08:41:09;23.30;52.80
17296;DHT22;8766;51.480;6.872;2022-09-09T08:43:39;23.70;52.30
17296;DHT22;8766;51.480;6.872;2022-09-09T08:46:11;23.80;51.80
17296;DHT22;8766;51.480;6.872;2022-09-09T08:48:48;23.90;51.80
17296;DHT22;8766;51.480;6.872;2022-09-09T08:51:18;24.70;50.70
17296;DHT22;8766;51.480;6.872;2022-09-09T08:53:49;25.60;49.30
17296;DHT22;8766;51.480;6.872;2022-09-09T08:56:21;26.60;48.00
17296;DHT22;8766;51.480;6.872;2022-09-09T08:58:49;27.20;47.10
17296;DHT22;8766;51.480;6.872;2022-09-09T09:01:37;27.50;46.70
17296;DHT22;8766;51.480;6.872;2022-09-09T09:04:12;27.80;46.40
17296;DHT22;8766;51.480;6.872;2022-09-09T09:06:49;27.80;46.60
17296;DHT22;8766;51.480;6.872;2022-09-09T09:09:24;27.50;46.90
17296;DHT22;8766;51.480;6.872;2022-09-09T09:11:55;27.70;46.80
17296;DHT22;8766;51.480;6.872;2022-09-09T09:14:28;28.30;45.90
17296;DHT22;8766;51.480;6.872;2022-09-09T09:16:58;28.60;45.40
17296;DHT22;8766;51.480;6.872;2022-09-09T09:19:27;28.60;45.40
17296;DHT22;8766;51.480;6.872;2022-09-09T09:22:01;28.10;46.30
17296;DHT22;8766;51.480;6.872;2022-09-09T09:24:40;27.30;47.40
17296;DHT22;8766;51.480;6.872;2022-09-09T09:27:13;26.50;48.70
17296;DHT22;8766;51.480;6.872;2022-09-09T09:29:42;25.70;49.80
17296;DHT22;8766;51.480;6.872;2022-09-09T09:32:14;25.10;50.80
17296;DHT22;8766;51.480;6.872;2022-09-09T09:34:48;24.60;51.60
17296;DHT22;8766;51.480;6.872;2022-09-09T09:37:17;24.40;52.10
17296;DHT22;8766;51.480;6.872;2022-09-09T09:39:48;24.30;52.10
17296;DHT22;8766;51.480;6.872;2022-09-09T09:42:17;24.20;52.30
17296;DHT22;8766;51.480;6.872;2022-09-09T09:44:44;23.90;52.50
17296;DHT22;8766;51.480;6.872;2022-09-09T09:47:13;23.70;52.80
17296;DHT22;8766;51.480;6.872;2022-09-09T09:49:51;23.60;53.10
17296;DHT22;8766;51.480;6.872;2022-09-09T09:52:22;23.30;53.40
17296;DHT22;8766;51.480;6.872;2022-09-09T09:54:51;23.10;53.70
17296;DHT22;8766;51.480;6.872;2022-09-09T09:57:23;22.90;54.00
17296;DHT22;8766;51.480;6.872;2022-09-09T10:00:01;22.70;54.20
17296;DHT22;8766;51.480;6.872;2022-09-09T10:02:37;22.70;54.40
17296;DHT22;8766;51.480;6.872;2022-09-09T10:05:12;22.60;54.40
17296;DHT22;8766;51.480;6.872;2022-09-09T10:07:40;22.50;54.40
17296;DHT22;8766;51.480;6.872;2022-09-09T10:10:13;22.50;54.40
17296;DHT22;8766;51.480;6.872;2022-09-09T10:12:47;22.50;54.30
17296;DHT22;8766;51.480;6.872;2022-09-09T10:15:31;22.70;53.80
17296;DHT22;8766;51.480;6.872;2022-09-09T10:18:13;23.10;53.20
17296;DHT22;8766;51.480;6.872;2022-09-09T10:20:52;23.30;52.70
17296;DHT22;8766;51.480;6.872;2022-09-09T10:23:32;23.40;52.50
17296;DHT22;8766;51.480;6.872;2022-09-09T10:26:17;23.50;52.40
17296;DHT22;8766;51.480;6.872;2022-09-09T10:29:06;23.50;52.30
17296;DHT22;8766;51.480;6.872;2022-09-09T10:31:41;23.50;52.30
17296;DHT22;8766;51.480;6.872;2022-09-09T10:34:19;23.40;52.40
17296;DHT22;8766;51.480;6.872;2022-09-09T10:36:49;23.30;52.50
17296;DHT22;8766;51.480;6.872;2022-09-09T10:39:30;23.20;52.60
17296;DHT22;8766;51.480;6.872;2022-09-09T10:42:05;23.10;52.70
17296;DHT22;8766;51.480;6.872;2022-09-09T10:44:46;23.10;52.80
17296;DHT22;8766;51.480;6.872;2022-09-09T10:47:33;23.10;52.70
17296;DHT22;8766;51.480;6.872;2022-09-09T10:53:11;23.00;52.90
17296;DHT22;8766;51.480;6.872;2022-09-09T10:55:43;22.90;53.10
17296;DHT22;8766;51.480;6.872;2022-09-09T10:58:14;22.70;53.30
17296;DHT22;8766;51.480;6.872;2022-09-09T11:00:45;22.60;53.60
17296;DHT22;8766;51.480;6.872;2022-09-09T11:03:17;22.50;53.80
17296;DHT22;8766;51.480;6.872;2022-09-09T11:05:49;22.40;53.90
17296;DHT22;8766;51.480;6.872;2022-09-09T11:08:19;22.40;53.90
17296;DHT22;8766;51.480;6.872;2022-09-09T11:10:51;22.50;53.80
17296;DHT22;8766;51.480;6.872;2022-09-09T11:13:26;22.50;53.50
17296;DHT22;8766;51.480;6.872;2022-09-09T11:16:00;22.60;53.30
17296;DHT22;8766;51.480;6.872;2022-09-09T11:18:29;22.80;53.00
17296;DHT22;8766;51.480;6.872;2022-09-09T11:21:00;22.90;52.90
17296;DHT22;8766;51.480;6.872;2022-09-09T11:23:35;23.00;52.70
17296;DHT22;8766;51.480;6.872;2022-09-09T11:26:06;23.00;52.60
17296;DHT22;8766;51.480;6.872;2022-09-09T11:28:44;23.00;52.50
17296;DHT22;8766;51.480;6.872;2022-09-09T11:31:28;23.00;52.50
17296;DHT22;8766;51.480;6.872;2022-09-09T11:34:12;23.00;52.60
17296;DHT22;8766;51.480;6.872;2022-09-09T11:37:05;22.80;52.80
17296;DHT22;8766;51.480;6.872;2022-09-09T11:39:57;22.70;53.00
17296;DHT22;8766;51.480;6.872;2022-09-09T11:42:25;22.70;53.10
17296;DHT22;8766;51.480;6.872;2022-09-09T11:44:54;22.70;53.10
17296;DHT22;8766;51.480;6.872;2022-09-09T11:47:25;22.70;53.00
17296;DHT22;8766;51.480;6.872;2022-09-09T11:49:55;22.80;52.80
17296;DHT22;8766;51.480;6.872;2022-09-09T11:52:37;23.00;52.60
17296;DHT22;8766;51.480;6.872;2022-09-09T11:55:09;23.10;52.30
17296;DHT22;8766;51.480;6.872;2022-09-09T11:57:37;23.20;52.10
17296;DHT22;8766;51.480;6.872;2022-09-09T12:02:49;23.20;52.20
17296;DHT22;8766;51.480;6.872;2022-09-09T12:05:16;23.10;52.20
17296;DHT22;8766;51.480;6.872;2022-09-09T12:07:51;23.10;52.20
17296;DHT22;8766;51.480;6.872;2022-09-09T12:10:23;23.10;52.20
17296;DHT22;8766;51.480;6.872;2022-09-09T12:12:52;23.30;52.10
17296;DHT22;8766;51.480;6.872;2022-09-09T12:15:26;23.40;51.90
17296;DHT22;8766;51.480;6.872;2022-09-09T12:17:56;23.50;51.60
17296;DHT22;8766;51.480;6.872;2022-09-09T12:20:26;23.60;51.50
17296;DHT22;8766;51.480;6.872;2022-09-09T12:23:27;23.50;51.60
17296;DHT22;8766;51.480;6.872;2022-09-09T12:28:57;23.10;52.20
17296;DHT22;8766;51.480;6.872;2022-09-09T12:31:31;22.90;52.60
17296;DHT22;8766;51.480;6.872;2022-09-09T12:34:11;22.80;52.70
17296;DHT22;8766;51.480;6.872;2022-09-09T12:36:41;22.90;52.80
17296;DHT22;8766;51.480;6.872;2022-09-09T12:39:16;22.90;52.70
17296;DHT22;8766;51.480;6.872;2022-09-09T12:41:51;22.90;52.60
17296;DHT22;8766;51.480;6.872;2022-09-09T12:44:23;23.00;52.50
17296;DHT22;8766;51.480;6.872;2022-09-09T12:46:52;22.90;52.50
17296;DHT22;8766;51.480;6.872;2022-09-09T12:49:31;22.80;52.70
17296;DHT22;8766;51.480;6.872;2022-09-09T12:52:03;22.60;53.10
17296;DHT22;8766;51.480;6.872;2022-09-09T12:54:31;22.40;53.50
17296;DHT22;8766;51.480;6.872;2022-09-09T12:56:59;22.10;53.90
17296;DHT22;8766;51.480;6.872;2022-09-09T12:59:35;21.90;54.30
17296;DHT22;8766;51.480;6.872;2022-09-09T13:02:16;21.80;54.50
17296;DHT22;8766;51.480;6.872;2022-09-09T13:04:44;21.70;54.70
17296;DHT22;8766;51.480;6.872;2022-09-09T13:07:13;21.50;54.90
17296;DHT22;8766;51.480;6.872;2022-09-09T13:09:42;21.40;55.20
17296;DHT22;8766;51.480;6.872;2022-09-09T13:12:14;21.30;55.30
17296;DHT22;8766;51.480;6.872;2022-09-09T13:14:43;21.20;55.50
17296;DHT22;8766;51.480;6.872;2022-09-09T13:17:20;21.10;55.60
17296;DHT22;8766;51.480;6.872;2022-09-09T13:19:48;21.00;55.80
17296;DHT22;8766;51.480;6.872;2022-09-09T13:22:21;20.90;55.90
17296;DHT22;8766;51.480;6.872;2022-09-09T13:25:03;21.00;56.00
17296;DHT22;8766;51.480;6.872;2022-09-09T13:27:32;21.00;55.90
17296;DHT22;8766;51.480;6.872;2022-09-09T13:30:00;21.10;55.80
17296;DHT22;8766;51.480;6.872;2022-09-09T13:32:29;21.20;55.40
17296;DHT22;8766;51.480;6.872;2022-09-09T13:34:57;21.40;55.20
17296;DHT22;8766;51.480;6.872;2022-09-09T13:37:30;21.50;54.90
17296;DHT22;8766;51.480;6.872;2022-09-09T13:39:58;21.60;54.70
17296;DHT22;8766;51.480;6.872;2022-09-09T13:42:27;21.70;54.50
17296;DHT22;8766;51.480;6.872;2022-09-09T13:44:55;21.80;54.40
17296;DHT22;8766;51.480;6.872;2022-09-09T13:47:30;21.90;54.20
17296;DHT22;8766;51.480;6.872;2022-09-09T13:49:58;22.00;54.10
17296;DHT22;8766;51.480;6.872;2022-09-09T13:52:27;22.10;54.00
17296;DHT22;8766;51.480;6.872;2022-09-09T13:54:56;22.10;53.90
17296;DHT22;8766;51.480;6.872;2022-09-09T13:57:24;22.10;53.80
17296;DHT22;8766;51.480;6.872;2022-09-09T13:59:53;22.10;53.80
17296;DHT22;8766;51.480;6.872;2022-09-09T14:02:21;22.20;53.90
17296;DHT22;8766;51.480;6.872;2022-09-09T14:04:51;22.30;53.90
17296;DHT22;8766;51.480;6.872;2022-09-09T14:07:21;22.30;53.80
17296;DHT22;8766;51.480;6.872;2022-09-09T14:09:48;22.40;53.70
17296;DHT22;8766;51.480;6.872;2022-09-09T14:12:17;22.40;53.60
17296;DHT22;8766;51.480;6.872;2022-09-09T14:14:44;22.50;53.60
17296;DHT22;8766;51.480;6.872;2022-09-09T14:17:11;22.60;53.50
17296;DHT22;8766;51.480;6.872;2022-09-09T14:19:38;22.60;53.40
17296;DHT22;8766;51.480;6.872;2022-09-09T14:22:06;22.60;53.50
17296;DHT22;8766;51.480;6.872;2022-09-09T14:24:33;22.60;53.60
17296;DHT22;8766;51.480;6.872;2022-09-09T14:27:00;22.60;53.60
17296;DHT22;8766;51.480;6.872;2022-09-09T14:29:27;22.60;53.60
17296;DHT22;8766;51.480;6.872;2022-09-09T14:31:54;22.70;53.50
17296;DHT22;8766;51.480;6.872;2022-09-09T14:34:21;22.70;53.40
17296;DHT22;8766;51.480;6.872;2022-09-09T14:36:48;22.70;54.00
17296;DHT22;8766;51.480;6.872;2022-09-09T14:39:17;22.60;53.60
17296;DHT22;8766;51.480;6.872;2022-09-09T14:41:44;22.40;53.90
17296;DHT22;8766;51.480;6.872;2022-09-09T14:44:11;22.30;54.20
17296;DHT22;8766;51.480;6.872;2022-09-09T14:46:38;22.10;54.50
17296;DHT22;8766;51.480;6.872;2022-09-09T14:49:05;22.00;54.80
17296;DHT22;8766;51.480;6.872;2022-09-09T14:51:32;21.90;55.10
17296;DHT22;8766;51.480;6.872;2022-09-09T14:53:59;21.70;55.50
17296;DHT22;8766;51.480;6.872;2022-09-09T14:56:30;21.40;56.00
17296;DHT22;8766;51.480;6.872;2022-09-09T14:59:00;21.00;56.50
17296;DHT22;8766;51.480;6.872;2022-09-09T15:01:28;20.80;57.00
17296;DHT22;8766;51.480;6.872;2022-09-09T15:03:57;20.60;57.30
17296;DHT22;8766;51.480;6.872;2022-09-09T15:06:25;20.50;57.60
17296;DHT22;8766;51.480;6.872;2022-09-09T15:08:53;20.30;57.80
17296;DHT22;8766;51.480;6.872;2022-09-09T15:11:25;20.30;58.00
17296;DHT22;8766;51.480;6.872;2022-09-09T15:13:54;20.20;58.00
17296;DHT22;8766;51.480;6.872;2022-09-09T15:16:24;20.20;58.00
17296;DHT22;8766;51.480;6.872;2022-09-09T15:18:53;20.20;58.00
17296;DHT22;8766;51.480;6.872;2022-09-09T15:21:22;20.20;57.90
17296;DHT22;8766;51.480;6.872;2022-09-09T15:23:49;20.20;57.90
17296;DHT22;8766;51.480;6.872;2022-09-09T15:26:17;20.20;57.90
17296;DHT22;8766;51.480;6.872;2022-09-09T15:28:46;20.20;57.80
17296;DHT22;8766;51.480;6.872;2022-09-09T15:31:16;20.30;57.80
17296;DHT22;8766;51.480;6.872;2022-09-09T15:33:47;20.20;57.80
17296;DHT22;8766;51.480;6.872;2022-09-09T15:36:16;20.20;57.80
17296;DHT22;8766;51.480;6.872;2022-09-09T15:38:43;20.10;57.90
17296;DHT22;8766;51.480;6.872;2022-09-09T15:41:11;20.10;57.90
17296;DHT22;8766;51.480;6.872;2022-09-09T15:43:38;20.20;57.90
17296;DHT22;8766;51.480;6.872;2022-09-09T15:46:24;20.20;57.80
17296;DHT22;8766;51.480;6.872;2022-09-09T15:48:51;20.30;57.70
17296;DHT22;8766;51.480;6.872;2022-09-09T15:51:18;20.30;57.60
17296;DHT22;8766;51.480;6.872;2022-09-09T15:53:45;20.30;57.50
17296;DHT22;8766;51.480;6.872;2022-09-09T15:56:13;20.40;57.30
17296;DHT22;8766;51.480;6.872;2022-09-09T15:58:40;20.50;57.20
17296;DHT22;8766;51.480;6.872;2022-09-09T16:01:10;20.50;57.10
17296;DHT22;8766;51.480;6.872;2022-09-09T16:03:40;20.60;57.00
17296;DHT22;8766;51.480;6.872;2022-09-09T16:06:08;20.70;56.90
17296;DHT22;8766;51.480;6.872;2022-09-09T16:08:37;20.70;56.70
17296;DHT22;8766;51.480;6.872;2022-09-09T16:11:09;20.80;56.50
17296;DHT22;8766;51.480;6.872;2022-09-09T16:13:40;20.90;56.40
17296;DHT22;8766;51.480;6.872;2022-09-09T16:16:09;20.90;56.50
17296;DHT22;8766;51.480;6.872;2022-09-09T16:18:41;20.90;56.50
17296;DHT22;8766;51.480;6.872;2022-09-09T16:21:14;20.90;56.50